createdAt,value
2018-07-17T00:00:54.239Z,21.85
2018-07-17T00:01:54.243Z,21.79
2018-07-17T00:03:47.189Z,21.78
2018-07-17T00:04:47.189Z,21.82
2018-07-17T00:06:40.123Z,21.71
2018-07-17T00:07:40.136Z,21.74
2018-07-17T00:09:33.096Z,21.82
2018-07-17T00:10:33.084Z,21.76
2018-07-17T00:12:26.035Z,21.78
2018-07-17T00:13:26.032Z,21.83
2018-07-17T00:15:18.963Z,21.88
2018-07-17T00:16:18.980Z,21.81
2018-07-17T00:18:11.933Z,21.82
2018-07-17T00:19:11.930Z,21.94
2018-07-17T00:21:04.861Z,21.91
2018-07-17T00:22:04.877Z,21.94
2018-07-17T00:23:57.835Z,21.92
2018-07-17T00:24:57.829Z,21.91
2018-07-17T00:26:50.765Z,21.88
2018-07-17T00:27:50.781Z,21.85
2018-07-17T00:29:43.741Z,21.81
2018-07-17T00:30:43.733Z,21.76
2018-07-17T00:32:36.690Z,21.74
2018-07-17T00:33:36.679Z,21.72
2018-07-17T00:35:29.611Z,21.61
2018-07-17T00:36:29.630Z,21.59
2018-07-17T00:38:22.578Z,21.64
2018-07-17T00:39:22.580Z,21.59
2018-07-17T00:41:15.539Z,21.46
2018-07-17T00:42:15.527Z,21.53
2018-07-17T00:44:08.480Z,21.59
2018-07-17T00:45:08.478Z,21.51
2018-07-17T00:47:01.406Z,21.54
2018-07-17T00:48:01.465Z,21.51
2018-07-17T00:49:54.384Z,21.44
2018-07-17T00:50:54.382Z,21.44
2018-07-17T00:52:47.337Z,21.34
2018-07-17T00:53:47.330Z,21.39
2018-07-17T00:55:40.325Z,21.36
2018-07-17T00:56:40.282Z,21.34
2018-07-17T00:58:33.238Z,21.34
2018-07-17T00:59:33.233Z,21.20
2018-07-17T01:01:26.168Z,21.16
2018-07-17T01:02:26.188Z,21.26
2018-07-17T01:04:19.137Z,21.26
2018-07-17T01:05:19.138Z,21.26
2018-07-17T01:07:12.071Z,21.35
2018-07-17T01:08:12.089Z,21.34
2018-07-17T01:10:05.036Z,21.38
2018-07-17T01:11:05.031Z,21.41
2018-07-17T01:12:57.986Z,21.42
2018-07-17T01:13:57.976Z,21.36
2018-07-17T01:15:50.911Z,21.45
2018-07-17T01:16:50.926Z,21.42
2018-07-17T01:18:43.876Z,21.23
2018-07-17T01:19:43.875Z,21.16
2018-07-17T01:21:36.805Z,21.08
2018-07-17T01:22:36.821Z,21.11
2018-07-17T01:24:29.774Z,20.93
2018-07-17T01:25:29.775Z,20.95
2018-07-17T01:27:22.705Z,20.91
2018-07-17T01:28:22.721Z,20.95
2018-07-17T01:30:15.672Z,21.05
2018-07-17T01:31:15.666Z,21.16
2018-07-17T01:33:08.619Z,21.24
2018-07-17T01:34:08.615Z,21.24
2018-07-17T01:36:01.549Z,21.41
2018-07-17T01:37:01.569Z,21.39
2018-07-17T01:38:54.518Z,21.54
2018-07-17T01:39:54.516Z,21.56
2018-07-17T01:41:47.448Z,21.54
2018-07-17T01:42:47.468Z,21.56
2018-07-17T01:44:40.419Z,21.67
2018-07-17T01:45:40.451Z,21.72
2018-07-17T01:47:33.350Z,21.66
2018-07-17T01:48:33.367Z,21.76
2018-07-17T01:50:26.317Z,21.63
2018-07-17T01:51:26.311Z,21.72
2018-07-17T01:53:19.272Z,21.76
2018-07-17T01:54:19.264Z,21.81
2018-07-17T02:23:44.377Z,21.59
2018-07-17T02:24:44.368Z,21.57
2018-07-17T02:26:37.285Z,21.54
2018-07-17T02:27:37.300Z,21.48
2018-07-17T02:29:30.241Z,21.41
2018-07-17T02:30:30.235Z,21.39
2018-07-17T02:32:23.161Z,21.32
2018-07-17T02:33:23.187Z,21.30
2018-07-17T02:35:16.125Z,21.32
2018-07-17T02:36:16.119Z,21.26
2018-07-17T02:38:09.052Z,21.24
2018-07-17T02:39:09.067Z,21.23
2018-07-17T02:41:02.011Z,21.23
2018-07-17T02:42:02.029Z,21.11
2018-07-17T02:43:54.953Z,21.08
2018-07-17T02:44:54.949Z,21.08
2018-07-17T02:46:47.879Z,21.08
2018-07-17T02:47:47.894Z,20.91
2018-07-17T02:49:40.843Z,20.81
2018-07-17T02:50:40.852Z,20.69
2018-07-17T02:52:33.769Z,20.56
2018-07-17T02:53:33.788Z,20.56
2018-07-17T02:55:26.739Z,20.49
2018-07-17T02:56:26.740Z,20.51
2018-07-17T02:58:19.665Z,20.42
2018-07-17T02:59:19.684Z,20.33
2018-07-17T03:01:12.633Z,20.30
2018-07-17T03:02:12.628Z,20.31
2018-07-17T03:04:05.578Z,20.30
2018-07-17T03:05:05.573Z,20.23
2018-07-17T03:06:58.571Z,20.28
2018-07-17T03:07:58.549Z,20.23
2018-07-17T03:09:51.486Z,20.13
2018-07-17T03:10:51.482Z,20.03
2018-07-17T03:12:44.412Z,19.97
2018-07-17T03:13:44.432Z,20.06
2018-07-17T03:15:37.377Z,19.84
2018-07-17T03:16:37.372Z,19.79
2018-07-17T03:18:30.303Z,19.78
2018-07-17T03:19:30.319Z,19.78
2018-07-17T03:21:23.265Z,19.73
2018-07-17T03:22:23.271Z,19.84
2018-07-17T03:24:16.212Z,19.86
2018-07-17T03:25:16.209Z,19.91
2018-07-17T03:27:09.134Z,19.70
2018-07-17T03:28:09.153Z,19.84
2018-07-17T03:30:02.101Z,19.90
2018-07-17T03:31:02.106Z,19.86
2018-07-17T03:32:55.027Z,19.86
2018-07-17T03:33:55.043Z,19.84
2018-07-17T03:35:47.990Z,19.79
2018-07-17T03:36:47.985Z,19.76
2018-07-17T03:38:40.911Z,19.63
2018-07-17T03:39:40.930Z,19.58
2018-07-17T03:41:33.880Z,19.55
2018-07-17T03:42:33.880Z,19.48
2018-07-17T03:44:26.827Z,19.54
2018-07-17T03:45:26.820Z,19.39
2018-07-17T03:47:19.751Z,19.43
2018-07-17T03:48:19.764Z,19.42
2018-07-17T03:50:12.716Z,19.32
2018-07-17T03:51:12.715Z,19.33
2018-07-17T03:53:05.640Z,19.28
2018-07-17T03:54:05.655Z,19.14
2018-07-17T03:55:58.608Z,19.28
2018-07-17T03:56:58.602Z,19.23
2018-07-17T03:58:51.535Z,19.28
2018-07-17T03:59:51.556Z,19.21
2018-07-17T04:01:44.503Z,19.28
2018-07-17T04:02:44.562Z,19.24
2018-07-17T04:04:37.445Z,19.39
2018-07-17T04:05:37.448Z,19.40
2018-07-17T04:07:30.370Z,19.40
2018-07-17T04:08:30.383Z,19.40
2018-07-17T04:10:23.337Z,19.38
2018-07-17T04:11:23.330Z,19.43
2018-07-17T04:13:16.274Z,19.42
2018-07-17T04:14:16.276Z,19.40
2018-07-17T04:16:09.227Z,19.39
2018-07-17T04:17:09.225Z,19.40
2018-07-17T04:19:02.149Z,19.47
2018-07-17T04:20:02.167Z,19.47
2018-07-17T04:21:55.120Z,19.50
2018-07-17T04:22:55.122Z,19.48
2018-07-17T04:24:48.067Z,19.40
2018-07-17T04:25:48.061Z,19.38
2018-07-17T04:27:41.000Z,19.48
2018-07-17T04:28:41.011Z,19.46
2018-07-17T04:30:33.956Z,19.60
2018-07-17T04:31:33.974Z,19.54
2018-07-17T04:33:26.891Z,19.68
2018-07-17T04:34:26.902Z,19.63
2018-07-17T04:36:19.856Z,19.61
2018-07-17T04:37:19.853Z,19.69
2018-07-17T04:39:12.783Z,19.76
2018-07-17T04:40:12.798Z,19.75
2018-07-17T04:42:05.750Z,19.79
2018-07-17T04:43:05.746Z,19.68
2018-07-17T04:44:58.696Z,19.73
2018-07-17T04:45:58.694Z,19.76
2018-07-17T04:47:51.617Z,19.75
2018-07-17T04:48:51.634Z,19.79
2018-07-17T04:50:44.587Z,19.76
2018-07-17T04:51:44.580Z,19.73
2018-07-17T04:53:37.512Z,19.87
2018-07-17T04:54:37.529Z,19.93
2018-07-17T04:56:30.528Z,20.06
2018-07-17T04:57:30.475Z,20.16
2018-07-17T04:59:23.411Z,20.13
2018-07-17T05:00:23.421Z,20.18
2018-07-17T05:02:16.371Z,20.15
2018-07-17T05:03:16.365Z,20.20
2018-07-17T05:05:09.315Z,20.30
2018-07-17T05:06:09.311Z,20.46
2018-07-17T05:08:02.250Z,20.42
2018-07-17T05:09:02.264Z,20.47
2018-07-17T05:10:55.211Z,20.69
2018-07-17T05:11:55.208Z,20.71
2018-07-17T05:13:48.138Z,20.83
2018-07-17T05:14:48.153Z,20.91
2018-07-17T05:16:41.105Z,21.13
2018-07-17T05:17:41.101Z,21.14
2018-07-17T05:19:34.037Z,21.21
2018-07-17T05:20:34.054Z,21.39
2018-07-17T05:22:26.997Z,21.53
2018-07-17T05:23:26.992Z,21.64
2018-07-17T05:25:19.959Z,21.63
2018-07-17T05:26:19.941Z,21.63
2018-07-17T05:28:12.872Z,21.66
2018-07-17T05:29:12.891Z,21.69
2018-07-17T05:31:05.840Z,21.81
2018-07-17T05:32:05.834Z,21.82
2018-07-17T05:33:58.780Z,21.81
2018-07-17T05:34:58.821Z,21.90
2018-07-17T05:36:51.738Z,21.92
2018-07-17T05:37:51.732Z,21.99
2018-07-17T05:39:44.661Z,22.12
2018-07-17T05:40:44.678Z,22.14
2018-07-17T05:42:37.630Z,22.78
2018-07-17T05:43:37.627Z,23.95
2018-07-17T05:45:30.578Z,26.06
2018-07-17T05:46:30.615Z,26.58
2018-07-17T05:48:23.513Z,26.62
2018-07-17T05:49:23.533Z,26.72
2018-07-17T05:51:16.485Z,26.17
2018-07-17T05:52:16.486Z,26.59
2018-07-17T05:54:09.412Z,28.09
2018-07-17T05:55:09.436Z,28.59
2018-07-17T05:57:02.394Z,28.09
2018-07-17T05:58:02.392Z,27.23
2018-07-17T05:59:55.333Z,25.80
2018-07-17T06:00:55.349Z,25.42
2018-07-17T06:02:48.310Z,24.92
2018-07-17T06:03:48.308Z,24.56
2018-07-17T06:05:41.264Z,24.20
2018-07-17T06:06:41.268Z,24.00
2018-07-17T06:08:34.196Z,23.70
2018-07-17T06:09:34.219Z,23.71
2018-07-17T06:11:27.174Z,23.49
2018-07-17T06:12:27.177Z,23.49
2018-07-17T06:14:20.112Z,23.42
2018-07-17T06:15:20.132Z,23.43
2018-07-17T06:17:13.090Z,23.31
2018-07-17T06:18:13.101Z,23.42
2018-07-17T06:20:06.025Z,23.45
2018-07-17T06:21:06.043Z,23.40
2018-07-17T06:22:59.007Z,23.40
2018-07-17T06:23:59.006Z,23.38
2018-07-17T06:25:52.461Z,23.32
2018-07-17T06:26:52.460Z,23.24
2018-07-17T06:28:45.391Z,23.31
2018-07-17T06:29:45.409Z,23.29
2018-07-17T06:31:38.360Z,23.32
2018-07-17T06:32:38.360Z,23.15
2018-07-17T06:34:31.302Z,23.11
2018-07-17T06:35:31.321Z,23.11
2018-07-17T06:37:24.270Z,23.04
2018-07-17T06:38:24.269Z,23.12
2018-07-17T06:40:17.207Z,23.19
2018-07-17T06:41:17.225Z,23.14
2018-07-17T06:43:10.182Z,23.24
2018-07-17T06:44:10.179Z,23.23
2018-07-17T06:46:03.138Z,23.79
2018-07-17T06:47:03.131Z,25.05
2018-07-17T06:48:56.067Z,25.79
2018-07-17T06:49:56.084Z,26.54
2018-07-17T06:51:49.048Z,27.79
2018-07-17T06:52:49.046Z,28.38
2018-07-17T06:54:41.980Z,28.88
2018-07-17T06:55:41.995Z,29.28
2018-07-17T06:57:34.957Z,29.84
2018-07-17T06:58:34.953Z,30.08
2018-07-17T07:00:27.892Z,29.70
2018-07-17T07:01:27.912Z,29.25
2018-07-17T07:03:20.867Z,28.77
2018-07-17T07:04:20.868Z,29.26
2018-07-17T07:06:13.831Z,29.93
2018-07-17T07:07:13.831Z,30.11
2018-07-17T07:09:06.784Z,30.33
2018-07-17T07:10:06.785Z,30.38
2018-07-17T07:11:59.752Z,30.38
2018-07-17T07:12:59.748Z,30.47
2018-07-17T07:14:52.694Z,30.18
2018-07-17T07:15:52.713Z,30.59
2018-07-17T07:17:45.675Z,29.90
2018-07-17T07:18:45.674Z,30.11
2018-07-17T07:20:38.616Z,29.82
2018-07-17T07:21:38.644Z,30.11
2018-07-17T07:23:31.604Z,30.69
2018-07-17T07:24:31.610Z,30.76
2018-07-17T07:26:24.580Z,30.89
2018-07-17T07:27:24.581Z,31.13
2018-07-17T07:29:17.524Z,31.12
2018-07-17T07:30:17.553Z,30.94
2018-07-17T07:32:10.510Z,31.09
2018-07-17T07:33:10.510Z,31.31
2018-07-17T07:35:03.456Z,31.28
2018-07-17T07:36:03.482Z,31.36
2018-07-17T07:37:56.440Z,31.75
2018-07-17T07:38:56.451Z,31.45
2018-07-17T07:40:49.405Z,31.55
2018-07-17T07:41:49.412Z,31.23
2018-07-17T07:43:42.378Z,30.76
2018-07-17T07:44:42.380Z,30.33
2018-07-17T07:46:35.347Z,30.08
2018-07-17T07:47:35.350Z,29.81
2018-07-17T07:49:28.297Z,29.28
2018-07-17T07:50:28.321Z,28.97
2018-07-17T07:52:21.286Z,28.60
2018-07-17T07:53:21.288Z,28.47
2018-07-17T07:55:14.228Z,28.32
2018-07-17T07:56:14.252Z,28.28
2018-07-17T07:58:07.219Z,28.70
2018-07-17T07:59:07.220Z,28.88
2018-07-17T08:01:00.167Z,29.13
2018-07-17T08:02:00.186Z,29.13
2018-07-17T08:03:53.202Z,29.63
2018-07-17T08:04:53.146Z,29.63
2018-07-17T08:06:46.115Z,29.79
2018-07-17T08:07:46.112Z,29.99
2018-07-17T08:09:39.058Z,30.08
2018-07-17T08:10:39.080Z,30.15
2018-07-17T08:12:32.046Z,30.18
2018-07-17T08:13:32.043Z,30.56
2018-07-17T08:15:24.996Z,30.62
2018-07-17T08:16:25.022Z,30.68
2018-07-17T08:18:17.986Z,30.76
2018-07-17T08:19:17.989Z,30.80
2018-07-17T08:21:11.003Z,30.81
2018-07-17T08:22:11.018Z,30.59
2018-07-17T08:24:03.979Z,30.15
2018-07-17T08:25:03.985Z,30.14
2018-07-17T08:26:56.949Z,30.16
2018-07-17T08:27:56.950Z,30.03
2018-07-17T08:29:50.027Z,30.11
2018-07-17T08:30:49.923Z,29.93
2018-07-17T08:32:42.886Z,29.82
2018-07-17T08:33:42.887Z,29.71
2018-07-17T08:35:35.833Z,29.47
2018-07-17T08:36:35.871Z,29.45
2018-07-17T08:38:28.826Z,29.50
2018-07-17T08:39:28.820Z,29.55
2018-07-17T08:41:21.761Z,29.44
2018-07-17T08:42:21.788Z,29.38
2018-07-17T08:44:14.751Z,29.26
2018-07-17T08:45:14.758Z,29.23
2018-07-17T08:47:07.719Z,29.10
2018-07-17T08:48:07.721Z,29.10
2018-07-17T08:50:00.665Z,28.97
2018-07-17T08:51:00.691Z,29.10
2018-07-17T08:52:53.649Z,28.91
2018-07-17T08:53:53.657Z,29.00
2018-07-17T08:55:46.599Z,28.91
2018-07-17T08:56:46.622Z,28.85
2018-07-17T08:58:39.581Z,29.04
2018-07-17T08:59:39.578Z,29.13
2018-07-17T09:01:32.518Z,29.34
2018-07-17T09:02:32.541Z,29.31
2018-07-17T09:04:25.522Z,29.41
2018-07-17T09:05:25.499Z,29.37
2018-07-17T09:07:18.469Z,29.55
2018-07-17T09:08:18.471Z,29.52
2018-07-17T09:10:11.408Z,29.53
2018-07-17T09:11:11.425Z,29.62
2018-07-17T09:13:04.435Z,29.70
2018-07-17T09:14:04.390Z,29.89
2018-07-17T09:15:57.340Z,29.92
2018-07-17T09:16:57.360Z,29.97
2018-07-17T09:18:50.318Z,30.00
2018-07-17T09:19:50.321Z,29.93
2018-07-17T09:21:43.257Z,29.96
2018-07-17T09:22:43.278Z,30.00
2018-07-17T09:24:36.239Z,30.00
2018-07-17T09:25:36.236Z,30.09
2018-07-17T09:27:29.198Z,29.97
2018-07-17T09:28:29.205Z,30.07
2018-07-17T09:30:22.144Z,30.05
2018-07-17T09:31:22.164Z,30.18
2018-07-17T09:33:15.133Z,30.09
2018-07-17T09:34:15.133Z,30.15
2018-07-17T09:36:08.081Z,30.15
2018-07-17T09:37:08.100Z,30.16
2018-07-17T09:39:01.125Z,30.15
2018-07-17T09:40:01.062Z,30.12
2018-07-17T09:41:53.998Z,30.27
2018-07-17T09:42:54.042Z,30.23
2018-07-17T09:44:46.987Z,30.14
2018-07-17T09:45:46.985Z,30.07
2018-07-17T09:47:39.960Z,30.07
2018-07-17T09:48:39.952Z,30.09
2018-07-17T09:50:32.900Z,30.19
2018-07-17T09:51:32.924Z,30.16
2018-07-17T09:53:25.897Z,30.31
2018-07-17T09:54:25.928Z,30.26
2018-07-17T09:56:18.842Z,30.15
2018-07-17T09:57:18.861Z,30.12
2018-07-17T09:59:11.826Z,30.11
2018-07-17T10:00:11.827Z,30.19
2018-07-17T10:02:04.809Z,30.15
2018-07-17T10:03:04.792Z,30.12
2018-07-17T10:04:57.744Z,30.12
2018-07-17T10:05:57.747Z,30.19
2018-07-17T10:07:50.717Z,30.11
2018-07-17T10:08:50.710Z,30.15
2018-07-17T10:10:43.649Z,30.19
2018-07-17T10:11:43.684Z,30.30
2018-07-17T10:13:36.630Z,30.15
2018-07-17T10:14:36.731Z,30.15
2018-07-17T10:16:29.577Z,30.26
2018-07-17T10:17:29.600Z,30.19
2018-07-17T10:19:22.558Z,30.47
2018-07-17T10:20:22.651Z,30.45
2018-07-17T10:22:15.504Z,30.47
2018-07-17T10:23:15.523Z,30.47
2018-07-17T10:25:08.486Z,30.36
2018-07-17T10:26:08.484Z,30.47
2018-07-17T10:28:01.449Z,30.46
2018-07-17T10:29:01.446Z,30.45
2018-07-17T10:30:54.390Z,30.50
2018-07-17T10:31:54.413Z,30.53
2018-07-17T10:33:47.369Z,30.50
2018-07-17T10:34:47.376Z,30.59
2018-07-17T10:36:40.316Z,30.57
2018-07-17T10:37:40.339Z,30.46
2018-07-17T10:39:33.297Z,30.38
2018-07-17T10:40:33.319Z,30.18
2018-07-17T10:42:26.244Z,30.09
2018-07-17T10:43:26.269Z,29.99
2018-07-17T10:45:19.239Z,30.07
2018-07-17T10:46:19.239Z,30.16
2018-07-17T10:48:12.205Z,30.50
2018-07-17T10:49:12.210Z,30.62
2018-07-17T10:51:05.160Z,30.76
2018-07-17T10:52:05.183Z,30.76
2018-07-17T10:53:58.164Z,30.76
2018-07-17T10:54:58.146Z,30.87
2018-07-17T10:56:51.083Z,31.04
2018-07-17T10:57:51.101Z,30.87
2018-07-17T10:59:44.067Z,30.98
2018-07-17T11:00:44.065Z,31.08
2018-07-17T11:02:37.015Z,30.81
2018-07-17T11:03:37.038Z,30.75
2018-07-17T11:05:30.005Z,30.46
2018-07-17T11:06:29.998Z,30.40
2018-07-17T11:08:23.015Z,30.43
2018-07-17T11:09:22.964Z,30.21
2018-07-17T11:11:15.912Z,30.34
2018-07-17T11:12:15.929Z,30.57
2018-07-17T11:14:08.888Z,30.74
2018-07-17T11:15:08.887Z,30.90
2018-07-17T11:17:01.830Z,30.91
2018-07-17T11:18:01.848Z,30.98
2018-07-17T11:19:54.810Z,30.93
2018-07-17T11:20:54.813Z,31.08
2018-07-17T11:22:47.753Z,31.18
2018-07-17T11:23:47.776Z,31.26
2018-07-17T11:25:40.744Z,31.33
2018-07-17T11:26:40.739Z,31.21
2018-07-17T11:28:33.730Z,31.40
2018-07-17T11:29:33.700Z,31.30
2018-07-17T11:31:26.637Z,31.35
2018-07-17T11:32:26.660Z,31.46
2018-07-17T11:34:19.623Z,31.31
2018-07-17T11:35:19.623Z,31.36
2018-07-17T11:37:12.566Z,31.60
2018-07-17T11:38:12.589Z,31.48
2018-07-17T11:40:05.547Z,31.60
2018-07-17T11:41:05.553Z,31.80
2018-07-17T11:42:58.497Z,31.73
2018-07-17T11:43:58.532Z,31.82
2018-07-17T11:45:51.479Z,31.96
2018-07-17T11:46:51.482Z,31.99
2018-07-17T11:48:44.444Z,31.99
2018-07-17T11:49:44.442Z,31.95
2018-07-17T11:51:37.391Z,32.02
2018-07-17T11:52:37.411Z,32.13
2018-07-17T11:54:30.370Z,32.15
2018-07-17T11:55:30.369Z,32.11
2018-07-17T11:57:23.333Z,32.18
2018-07-17T11:58:23.345Z,32.18
2018-07-17T12:00:16.304Z,32.32
2018-07-17T12:01:16.305Z,32.29
2018-07-17T12:03:09.248Z,32.33
2018-07-17T12:04:09.270Z,32.21
2018-07-17T12:06:02.351Z,32.21
2018-07-17T12:07:02.237Z,32.27
2018-07-17T12:08:55.194Z,32.30
2018-07-17T12:09:55.196Z,32.36
2018-07-17T12:11:48.134Z,32.11
2018-07-17T12:12:48.204Z,32.06
2018-07-17T12:14:41.122Z,31.68
2018-07-17T12:15:41.121Z,31.64
2018-07-17T12:17:34.066Z,31.64
2018-07-17T12:18:34.089Z,31.53
2018-07-17T12:20:27.088Z,31.30
2018-07-17T12:21:27.053Z,31.48
2018-07-17T12:23:19.991Z,31.76
2018-07-17T12:24:20.016Z,31.84
2018-07-17T12:26:12.976Z,32.06
2018-07-17T12:27:12.990Z,32.15
2018-07-17T12:29:05.943Z,32.07
2018-07-17T12:30:05.943Z,32.20
2018-07-17T12:31:58.889Z,31.95
2018-07-17T12:32:58.912Z,31.88
2018-07-17T12:34:51.896Z,32.13
2018-07-17T12:35:51.877Z,32.25
2018-07-17T12:37:44.819Z,32.43
2018-07-17T12:38:44.841Z,32.43
2018-07-17T12:40:37.800Z,32.35
2018-07-17T12:41:37.805Z,32.35
2018-07-17T12:43:30.748Z,32.40
2018-07-17T12:44:30.771Z,32.58
2018-07-17T12:46:23.730Z,32.73
2018-07-17T12:47:23.754Z,32.85
2018-07-17T12:49:16.691Z,32.77
2018-07-17T12:50:16.699Z,32.84
2018-07-17T12:52:09.641Z,32.81
2018-07-17T12:53:09.656Z,32.73
2018-07-17T12:55:02.628Z,32.35
2018-07-17T12:56:02.629Z,32.33
2018-07-17T12:57:55.576Z,32.15
2018-07-17T12:58:55.589Z,32.29
2018-07-17T13:00:48.554Z,32.73
2018-07-17T13:01:48.558Z,32.79
2018-07-17T13:03:41.504Z,32.77
2018-07-17T13:04:41.523Z,32.88
2018-07-17T13:06:34.495Z,33.10
2018-07-17T13:07:34.491Z,33.17
2018-07-17T13:09:27.480Z,33.22
2018-07-17T13:10:27.456Z,33.39
2018-07-17T13:12:20.398Z,33.68
2018-07-17T13:13:20.423Z,33.57
2018-07-17T13:15:13.389Z,33.73
2018-07-17T13:16:13.393Z,33.67
2018-07-17T13:18:06.333Z,33.71
2018-07-17T13:19:06.355Z,33.55
2018-07-17T13:20:59.328Z,33.60
2018-07-17T13:21:59.316Z,33.43
2018-07-17T13:23:52.261Z,33.17
2018-07-17T13:24:52.283Z,33.07
2018-07-17T13:26:45.254Z,32.86
2018-07-17T13:27:45.260Z,32.89
2018-07-17T13:29:38.237Z,33.23
2018-07-17T13:30:38.228Z,33.04
2018-07-17T13:32:31.167Z,32.51
2018-07-17T13:33:31.192Z,32.18
2018-07-17T13:35:24.161Z,32.10
2018-07-17T13:36:24.166Z,32.10
2018-07-17T13:38:17.101Z,32.14
2018-07-17T13:39:17.205Z,32.13
2018-07-17T13:41:10.111Z,32.10
2018-07-17T13:42:10.101Z,32.05
2018-07-17T13:44:03.038Z,31.68
2018-07-17T13:45:03.061Z,31.46
2018-07-17T13:46:56.017Z,31.43
2018-07-17T13:47:56.021Z,31.60
2018-07-17T13:49:48.996Z,31.53
2018-07-17T13:50:48.990Z,31.27
2018-07-17T13:52:41.935Z,31.20
2018-07-17T13:53:41.954Z,31.21
2018-07-17T13:55:34.987Z,31.09
2018-07-17T13:56:34.921Z,30.96
2018-07-17T13:58:27.862Z,30.76
2018-07-17T13:59:27.879Z,31.05
2018-07-17T14:01:20.841Z,31.46
2018-07-17T14:02:20.848Z,31.76
2018-07-17T14:04:13.789Z,31.99
2018-07-17T14:05:13.813Z,32.10
2018-07-17T14:07:06.770Z,32.06
2018-07-17T14:08:06.775Z,32.11
2018-07-17T14:09:59.719Z,31.96
2018-07-17T14:10:59.741Z,31.98
2018-07-17T14:12:52.704Z,31.79
2018-07-17T14:13:52.701Z,31.50
2018-07-17T14:15:45.672Z,31.13
2018-07-17T14:16:45.670Z,30.75
2018-07-17T14:18:38.608Z,30.54
2018-07-17T14:19:38.633Z,30.38
2018-07-17T14:21:31.601Z,30.12
2018-07-17T14:22:31.600Z,30.12
2018-07-17T14:24:24.543Z,30.16
2018-07-17T14:25:24.563Z,30.23
2018-07-17T14:27:17.522Z,30.16
2018-07-17T14:28:17.528Z,30.19
2018-07-17T14:30:10.534Z,30.23
2018-07-17T14:31:10.490Z,30.24
2018-07-17T14:33:03.445Z,30.45
2018-07-17T14:34:03.448Z,30.72
2018-07-17T14:35:56.512Z,30.93
2018-07-17T14:36:56.410Z,31.12
2018-07-17T14:38:49.370Z,31.53
2018-07-17T14:39:49.389Z,31.76
2018-07-17T14:41:42.386Z,31.67
2018-07-17T14:42:42.351Z,31.38
2018-07-17T14:44:35.292Z,31.08
2018-07-17T14:45:35.314Z,30.80
2018-07-17T14:47:28.274Z,30.62
2018-07-17T14:48:28.276Z,30.59
2018-07-17T14:50:21.251Z,30.36
2018-07-17T14:51:21.235Z,30.37
2018-07-17T14:53:14.198Z,30.36
2018-07-17T14:54:14.199Z,30.31
2018-07-17T14:56:07.157Z,30.57
2018-07-17T14:57:07.164Z,30.69
2018-07-17T14:59:00.107Z,30.62
2018-07-17T15:00:00.179Z,30.72
2018-07-17T15:01:53.084Z,30.61
2018-07-17T15:02:53.083Z,30.62
2018-07-17T15:04:46.025Z,30.52
2018-07-17T15:05:46.050Z,30.46
2018-07-17T15:07:39.010Z,30.47
2018-07-17T15:08:39.007Z,30.65
2018-07-17T15:10:31.951Z,30.65
2018-07-17T15:11:31.972Z,30.45
2018-07-17T15:13:24.934Z,30.36
2018-07-17T15:14:24.933Z,30.57
2018-07-17T15:16:17.899Z,30.90
2018-07-17T15:17:17.904Z,30.93
2018-07-17T15:19:10.839Z,31.11
2018-07-17T15:20:10.862Z,30.98
2018-07-17T15:22:03.822Z,30.90
2018-07-17T15:23:03.825Z,30.91
2018-07-17T15:24:56.774Z,31.12
2018-07-17T15:25:56.789Z,31.23
2018-07-17T15:27:49.774Z,31.46
2018-07-17T15:28:49.752Z,31.53
2018-07-17T15:30:42.692Z,31.50
2018-07-17T15:31:42.709Z,31.36
2018-07-17T15:33:35.672Z,31.23
2018-07-17T15:34:35.679Z,31.01
2018-07-17T15:36:28.641Z,30.74
2018-07-17T15:37:28.640Z,30.71
2018-07-17T15:39:21.591Z,30.61
2018-07-17T15:40:21.606Z,30.61
2018-07-17T15:42:14.564Z,30.47
2018-07-17T15:43:14.572Z,30.56
2018-07-17T15:45:07.509Z,30.49
2018-07-17T15:46:07.530Z,30.61
2018-07-17T15:48:00.497Z,30.64
2018-07-17T15:49:00.491Z,30.65
2018-07-17T15:50:53.431Z,30.64
2018-07-17T15:51:53.451Z,30.56
2018-07-17T15:53:46.409Z,30.50
2018-07-17T15:54:46.411Z,30.53
2018-07-17T15:56:39.374Z,30.64
2018-07-17T15:57:39.423Z,30.64
2018-07-17T15:59:32.316Z,30.65
2018-07-17T16:00:32.338Z,30.71
2018-07-17T16:02:25.296Z,30.61
2018-07-17T16:03:25.300Z,30.57
2018-07-17T16:05:18.238Z,30.59
2018-07-17T16:06:18.363Z,30.65
2018-07-17T16:08:11.222Z,30.56
2018-07-17T16:09:11.223Z,30.49
2018-07-17T16:11:04.166Z,30.47
2018-07-17T16:12:04.190Z,30.36
2018-07-17T16:13:57.386Z,30.33
2018-07-17T16:14:57.151Z,30.24
2018-07-17T16:16:50.107Z,30.19
2018-07-17T16:17:50.110Z,30.16
2018-07-17T16:19:43.052Z,30.08
2018-07-17T16:20:43.064Z,30.05
2018-07-17T16:22:36.029Z,29.96
2018-07-17T16:23:36.027Z,29.86
2018-07-17T16:25:28.964Z,29.79
2018-07-17T16:26:28.996Z,29.84
2018-07-17T16:28:21.947Z,29.78
2018-07-17T16:29:21.950Z,29.78
2018-07-17T16:31:14.888Z,29.82
2018-07-17T16:32:14.910Z,29.93
2018-07-17T16:34:07.868Z,30.11
2018-07-17T16:35:07.869Z,30.09
2018-07-17T16:37:00.836Z,30.00
2018-07-17T16:38:00.830Z,29.94
2018-07-17T16:39:53.773Z,30.03
2018-07-17T16:40:53.790Z,30.03
2018-07-17T16:42:46.759Z,29.96
2018-07-17T16:43:46.754Z,29.89
2018-07-17T16:45:39.698Z,29.82
2018-07-17T16:46:39.714Z,29.63
2018-07-17T16:48:32.680Z,29.53
2018-07-17T16:49:32.697Z,29.43
2018-07-17T16:51:25.620Z,29.29
2018-07-17T16:52:25.638Z,29.23
2018-07-17T16:54:18.599Z,29.15
2018-07-17T16:55:18.604Z,28.97
2018-07-17T16:57:11.560Z,28.80
2018-07-17T16:58:11.558Z,28.80
2018-07-17T17:00:04.497Z,28.63
2018-07-17T17:01:04.522Z,28.73
2018-07-17T17:02:57.479Z,28.58
2018-07-17T17:03:57.476Z,28.53
2018-07-17T17:05:50.416Z,28.56
2018-07-17T17:06:50.490Z,28.53
2018-07-17T17:08:43.396Z,28.50
2018-07-17T17:09:43.396Z,28.53
2018-07-17T17:11:36.333Z,28.58
2018-07-17T17:12:36.357Z,28.60
2018-07-17T17:14:29.320Z,28.68
2018-07-17T17:15:29.324Z,28.78
2018-07-17T17:17:22.287Z,28.75
2018-07-17T17:18:22.294Z,28.70
2018-07-17T17:20:15.233Z,28.60
2018-07-17T17:21:15.252Z,28.62
2018-07-17T17:23:08.208Z,28.58
2018-07-17T17:24:08.220Z,28.47
2018-07-17T17:26:01.150Z,28.41
2018-07-17T17:27:01.169Z,28.35
2018-07-17T17:28:54.151Z,28.36
2018-07-17T17:29:54.149Z,28.29
2018-07-17T17:31:47.084Z,28.32
2018-07-17T17:32:47.136Z,28.17
2018-07-17T17:34:40.065Z,28.14
2018-07-17T17:35:40.065Z,28.04
2018-07-17T17:37:33.019Z,27.88
2018-07-17T17:38:33.023Z,27.77
2018-07-17T17:40:25.964Z,27.53
2018-07-17T17:41:25.975Z,27.48
2018-07-17T17:43:18.936Z,27.38
2018-07-17T17:44:18.942Z,27.31
2018-07-17T17:46:11.878Z,27.14
2018-07-17T17:47:11.903Z,27.09
2018-07-17T17:49:04.853Z,26.99
2018-07-17T17:50:04.848Z,26.87
2018-07-17T17:51:57.787Z,26.77
2018-07-17T17:52:57.811Z,26.76
2018-07-17T17:54:50.768Z,26.67
2018-07-17T17:55:50.764Z,26.64
2018-07-17T17:57:43.734Z,26.54
2018-07-17T17:58:43.732Z,26.55
2018-07-17T18:00:36.675Z,26.58
2018-07-17T18:01:36.697Z,26.58
2018-07-17T18:03:29.662Z,26.29
2018-07-17T18:04:29.647Z,26.28
2018-07-17T18:06:22.599Z,26.15
2018-07-17T18:07:22.614Z,26.22
2018-07-17T18:09:15.593Z,26.09
2018-07-17T18:10:15.592Z,26.17
2018-07-17T18:12:08.546Z,26.15
2018-07-17T18:13:08.551Z,26.02
2018-07-17T18:15:01.503Z,25.90
2018-07-17T18:16:01.509Z,25.91
2018-07-17T18:17:54.457Z,25.80
2018-07-17T18:18:54.458Z,25.68
2018-07-17T18:20:47.406Z,25.68
2018-07-17T18:21:47.434Z,25.64
2018-07-17T18:23:40.385Z,25.57
2018-07-17T18:24:40.381Z,25.49
2018-07-17T18:26:33.320Z,25.50
2018-07-17T18:27:33.340Z,25.52
2018-07-17T18:29:26.297Z,25.54
2018-07-17T18:30:26.291Z,25.50
2018-07-17T18:32:19.231Z,25.39
2018-07-17T18:33:19.245Z,25.42
2018-07-17T18:35:12.200Z,25.35
2018-07-17T18:36:12.196Z,25.30
2018-07-17T18:38:05.171Z,25.31
2018-07-17T18:39:05.173Z,25.28
2018-07-17T18:40:58.116Z,25.22
2018-07-17T18:41:58.169Z,25.16
2018-07-17T18:43:51.094Z,25.01
2018-07-17T18:44:51.090Z,25.06
2018-07-17T18:46:44.019Z,24.92
2018-07-17T18:47:44.066Z,24.85
2018-07-17T18:49:36.993Z,24.82
2018-07-17T18:50:36.992Z,24.76
2018-07-17T18:52:29.932Z,24.59
2018-07-17T18:53:29.947Z,24.64
2018-07-17T18:55:22.902Z,24.53
2018-07-17T18:56:22.898Z,24.59
2018-07-17T18:58:15.858Z,24.50
2018-07-17T18:59:15.858Z,24.47
2018-07-17T19:01:08.790Z,24.39